Time;durP1;ratioP1;P1;durP2;ratioP2;P2;SDS_P1;SDS_P2;PMS_P1;PMS_P2;Temp;Humidity;BMP_temperature;BMP_pressure;BME280_temperature;BME280_humidity;BME280_pressure;Samples;Min_cycle;Max_cycle;Signal;HPM_P1;HPM_P2
2023/05/22 00:00:47;;;;;;;;;;;;;;;;;;5047968;28;19915;-62
2023/05/22 00:03:15;;;;;;;;;;;;;;;;;;5065380;28;19920;-62
2023/05/22 00:05:40;;;;;;;;;;;;;;;;;;5048096;28;20276;-61
2023/05/22 00:08:10;;;;;;;;;;;;;;;;;;5043734;28;20495;-61
2023/05/22 00:10:44;;;;;;;;;;;;;;;;;;5050048;28;20101;-62
2023/05/22 00:13:12;;;;;;;;;;;;;;;;;;5050362;28;20050;-62
2023/05/22 00:15:39;;;;;;;;;;;;;;;;;;5032962;28;19985;-62
2023/05/22 00:18:05;;;;;;;;;;;;;;;;;;5064566;28;20009;-61
2023/05/22 00:20:30;;;;;;;;;;;;;;;;;;5033150;28;20010;-61
2023/05/22 00:23:00;;;;;;;;;;;;;;;;;;5046943;28;20041;-61
2023/05/22 00:25:25;;;;;;;;;;;;;;;;;;5048586;28;19924;-61
2023/05/22 00:27:50;;;;;;;;;;;;;;;;;;5050128;28;20436;-62
2023/05/22 00:30:18;;;;;;;;;;;;;;;;;;5066934;28;19923;-61
2023/05/22 00:32:48;;;;;;;;;;;;;;;;;;5045442;28;19974;-61
2023/05/22 00:35:13;;;;;;;;;;;;;;;;;;5044669;28;19916;-61
2023/05/22 00:37:39;;;;;;;;;;;;;;;;;;5049677;28;19927;-60
2023/05/22 00:40:04;;;;;;;;;;;;;;;;;;5066440;28;19920;-61
2023/05/22 00:42:32;;;;;;;;;;;;;;;;;;5049004;28;19916;-61
2023/05/22 00:45:00;;;;;;;;;;;;;;;;;;5040594;28;19924;-62
2023/05/22 00:47:25;;;;;;;;;;;;;;;;;;5030096;28;20490;-61
2023/05/22 00:49:53;;;;;;;;;;;;;;;;;;5035330;28;19974;-61
2023/05/22 00:52:21;;;;;;;;;;;;;;;;;;5051891;28;20686;-61
2023/05/22 00:54:49;;;;;;;;;;;;;;;;;;5049145;28;19920;-61
2023/05/22 00:57:17;;;;;;;;;;;;;;;;;;5053815;28;20190;-61
2023/05/22 00:59:45;;;;;;;;;;;;;;;;;;5054190;28;19920;-61
2023/05/22 01:02:15;;;;;;;;;;;;;;;;;;5070782;28;20103;-61
2023/05/22 01:04:41;;;;;;;;;;;;;;;;;;5053396;28;20465;-61
2023/05/22 01:07:06;;;;;;;;;;;;;;;;;;5048049;28;20272;-61
2023/05/22 01:09:32;;;;;;;;;;;;;;;;;;5067238;28;19920;-61
2023/05/22 01:11:57;;;;;;;;;;;;;;;;;;5053710;28;20389;-61
2023/05/22 01:14:22;;;;;;;;;;;;;;;;;;5067617;28;19978;-61
2023/05/22 01:16:47;;;;;;;;;;;;;;;;;;5031913;28;19920;-61
2023/05/22 01:19:16;;;;;;;;;;;;;;;;;;5033164;28;19926;-61
2023/05/22 01:21:44;;;;;;;;;;;;;;;;;;5042072;28;19923;-61
2023/05/22 01:24:14;;;;;;;;;;;;;;;;;;5035733;28;19954;-61
2023/05/22 01:26:40;;;;;;;;;;;;;;;;;;5053672;28;20424;-61
2023/05/22 01:29:07;;;;;;;;;;;;;;;;;;5034952;28;19920;-61
2023/05/22 01:31:33;;;;;;;;;;;;;;;;;;5039510;28;19981;-63
2023/05/22 01:33:58;;;;;;;;;;;;;;;;;;5048681;28;20355;-61
2023/05/22 01:36:27;;;;;;;;;;;;;;;;;;5035239;28;19942;-61
2023/05/22 01:38:52;;;;;;;;;;;;;;;;;;5050750;28;20360;-61
2023/05/22 01:41:20;;;;;;;;;;;;;;;;;;5066004;28;20058;-61
2023/05/22 01:43:45;;;;;;;;;;;;;;;;;;5025053;28;19916;-61
2023/05/22 01:46:13;;;;;;;;;;;;;;;;;;5067208;28;19916;-61
2023/05/22 01:48:38;;;;;;;;;;;;;;;;;;5069187;28;20236;-61
2023/05/22 01:51:04;;;;;;;;;;;;;;;;;;5051992;28;19946;-61
2023/05/22 01:53:29;;;;;;;;;;;;;;;;;;5060569;28;20065;-61
2023/05/22 01:55:57;;;;;;;;;;;;;;;;;;5056352;28;19920;-61
2023/05/22 01:58:22;;;;;;;;;;;;;;;;;;5052848;28;19920;-61
2023/05/22 02:00:47;;;;;;;;;;;;;;;;;;5048031;28;20087;-60
2023/05/22 02:03:12;;;;;;;;;;;;;;;;;;5052314;28;19916;-61
2023/05/22 02:05:38;;;;;;;;;;;;;;;;;;5048225;28;19916;-60
2023/05/22 02:08:03;;;;;;;;;;;;;;;;;;5043003;28;20052;-60
2023/05/22 02:10:28;;;;;;;;;;;;;;;;;;5032042;28;19916;-61
2023/05/22 02:12:54;;;;;;;;;;;;;;;;;;5029243;28;21473;-60
2023/05/22 02:15:22;;;;;;;;;;;;;;;;;;5033731;28;20038;-60
2023/05/22 02:17:48;;;;;;;;;;;;;;;;;;5052424;28;19920;-60
2023/05/22 02:20:16;;;;;;;;;;;;;;;;;;5066426;28;19927;-61
2023/05/22 02:22:43;;;;;;;;;;;;;;;;;;5053293;28;19920;-60
2023/05/22 02:25:13;;;;;;;;;;;;;;;;;;5049179;28;20382;-60
2023/05/22 02:27:40;;;;;;;;;;;;;;;;;;5027996;28;19927;-61
2023/05/22 02:30:05;;;;;;;;;;;;;;;;;;5068361;28;20459;-60
2023/05/22 02:32:33;;;;;;;;;;;;;;;;;;5047747;28;19927;-61
2023/05/22 02:34:58;;;;;;;;;;;;;;;;;;5047755;28;19932;-61
2023/05/22 02:37:27;;;;;;;;;;;;;;;;;;5069591;28;19938;-61
2023/05/22 02:39:52;;;;;;;;;;;;;;;;;;5032902;28;19920;-61
2023/05/22 02:42:17;;;;;;;;;;;;;;;;;;5061882;28;19927;-61
2023/05/22 02:44:43;;;;;;;;;;;;;;;;;;5049456;28;20394;-61
2023/05/22 02:47:08;;;;;;;;;;;;;;;;;;5035698;28;19926;-61
2023/05/22 02:49:35;;;;;;;;;;;;;;;;;;5069824;28;19916;-61
2023/05/22 02:52:01;;;;;;;;;;;;;;;;;;5033268;28;20423;-62
2023/05/22 02:54:26;;;;;;;;;;;;;;;;;;5033839;28;19973;-61
2023/05/22 02:56:57;;;;;;;;;;;;;;;;;;5030222;28;19972;-61
2023/05/22 02:59:24;;;;;;;;;;;;;;;;;;5036351;28;20372;-61
2023/05/22 03:01:50;;;;;;;;;;;;;;;;;;5048672;28;19938;-61
2023/05/22 03:04:15;;;;;;;;;;;;;;;;;;5045313;28;20344;-61
2023/05/22 03:06:45;;;;;;;;;;;;;;;;;;5049548;28;21602;-61
2023/05/22 03:09:13;;;;;;;;;;;;;;;;;;5031380;28;19958;-61
2023/05/22 03:11:41;;;;;;;;;;;;;;;;;;5066748;28;20005;-61
2023/05/22 03:14:06;;;;;;;;;;;;;;;;;;5049270;28;20068;-61
2023/05/22 03:16:33;;;;;;;;;;;;;;;;;;5050345;28;20011;-61
2023/05/22 03:19:00;;;;;;;;;;;;;;;;;;5031034;28;20390;-61
2023/05/22 03:21:27;;;;;;;;;;;;;;;;;;5061488;28;19920;-61
2023/05/22 03:23:53;;;;;;;;;;;;;;;;;;5047237;28;20359;-62
2023/05/22 03:26:18;;;;;;;;;;;;;;;;;;5047980;28;20000;-61
2023/05/22 03:28:44;;;;;;;;;;;;;;;;;;5048478;28;19943;-62
2023/05/22 03:31:09;;;;;;;;;;;;;;;;;;5030973;28;21508;-61
2023/05/22 03:33:34;;;;;;;;;;;;;;;;;;5050722;28;19923;-61
2023/05/22 03:36:00;;;;;;;;;;;;;;;;;;5049966;28;20036;-61
2023/05/22 03:38:28;;;;;;;;;;;;;;;;;;5031163;28;19923;-61
2023/05/22 03:40:56;;;;;;;;;;;;;;;;;;5046844;28;19916;-61
2023/05/22 03:43:21;;;;;;;;;;;;;;;;;;5067890;28;19916;-61
2023/05/22 03:45:46;;;;;;;;;;;;;;;;;;5049648;28;19934;-61
2023/05/22 03:48:11;;;;;;;;;;;;;;;;;;5027727;28;19926;-60
2023/05/22 03:50:37;;;;;;;;;;;;;;;;;;5065686;28;20709;-61
2023/05/22 03:53:04;;;;;;;;;;;;;;;;;;5067431;28;21386;-60
2023/05/22 03:55:30;;;;;;;;;;;;;;;;;;5051447;28;20290;-61
2023/05/22 03:57:58;;;;;;;;;;;;;;;;;;5068094;28;19923;-62
2023/05/22 04:00:25;;;;;;;;;;;;;;;;;;5028731;28;19951;-61
2023/05/22 04:02:57;;;;;;;;;;;;;;;;;;5024799;28;20011;-62
2023/05/22 04:05:22;;;;;;;;;;;;;;;;;;5049193;28;19956;-59
2023/05/22 04:07:50;;;;;;;;;;;;;;;;;;5062054;28;19923;-60
2023/05/22 04:10:21;;;;;;;;;;;;;;;;;;5028277;28;20389;-60
2023/05/22 04:12:48;;;;;;;;;;;;;;;;;;5063905;28;19923;-60
2023/05/22 04:18:31;;;;;;;;;;;;;;;;;;5063656;28;20303;-60
2023/05/22 04:20:56;;;;;;;;;;;;;;;;;;5051044;28;19920;-61
2023/05/22 04:23:21;;;;;;;;;;;;;;;;;;5045454;28;19920;-60
2023/05/22 04:25:47;;;;;;;;;;;;;;;;;;5052718;28;19930;-60
2023/05/22 04:28:12;;;;;;;;;;;;;;;;;;5036689;28;20002;-60
2023/05/22 04:30:40;;;;;;;;;;;;;;;;;;5050635;28;19946;-60
2023/05/22 04:33:09;;;;;;;;;;;;;;;;;;5056563;28;20008;-60
2023/05/22 04:35:37;;;;;;;;;;;;;;;;;;5055675;28;19923;-60
2023/05/22 04:38:02;;;;;;;;;;;;;;;;;;5055888;28;20014;-60
2023/05/22 04:40:29;;;;;;;;;;;;;;;;;;5053586;28;19927;-60
2023/05/22 04:42:58;;;;;;;;;;;;;;;;;;5033608;28;21799;-60
2023/05/22 04:48:40;;;;;;;;;;;;;;;;;;5067003;28;20603;-60
2023/05/22 04:51:08;;;;;;;;;;;;;;;;;;5033417;28;20007;-61
2023/05/22 04:53:37;;;;;;;;;;;;;;;;;;5033612;28;19927;-61
2023/05/22 04:56:03;;;;;;;;;;;;;;;;;;5068381;28;19916;-60
2023/05/22 04:58:33;;;;;;;;;;;;;;;;;;5031772;28;20008;-61
2023/05/22 05:01:02;;;;;;;;;;;;;;;;;;5045906;28;19920;-60
2023/05/22 05:03:27;;;;;;;;;;;;;;;;;;5052333;28;19916;-62
2023/05/22 05:05:52;;;;;;;;;;;;;;;;;;5035432;28;19924;-61
2023/05/22 05:08:18;;;;;;;;;;;;;;;;;;5047756;28;19916;-61
2023/05/22 05:10:43;;;;;;;;;;;;;;;;;;5033131;28;20454;-61
2023/05/22 05:13:08;;;;;;;;;;;;;;;;;;5043688;28;19926;-61
2023/05/22 05:15:34;;;;;;;;;;;;;;;;;;5050132;28;19920;-61
2023/05/22 05:18:02;;;;;;;;;;;;;;;;;;5046134;28;19954;-62
2023/05/22 05:20:29;;;;;;;;;;;;;;;;;;5070850;28;20536;-60
2023/05/22 05:22:54;;;;;;;;;;;;;;;;;;5050928;28;19916;-62
2023/05/22 05:25:22;;;;;;;;;;;;;;;;;;5052758;28;19963;-62
2023/05/22 05:27:50;;;;;;;;;;;;;;;;;;5050558;28;20038;-62
2023/05/22 05:30:17;;;;;;;;;;;;;;;;;;5067469;28;20266;-62
2023/05/22 05:32:43;;;;;;;;;;;;;;;;;;5045940;28;19967;-62
2023/05/22 05:35:08;;;;;;;;;;;;;;;;;;5053602;28;21064;-62
2023/05/22 05:37:33;;;;;;;;;;;;;;;;;;5051553;28;20397;-62
2023/05/22 05:39:59;;;;;;;;;;;;;;;;;;5068901;28;19920;-62
2023/05/22 05:42:24;;;;;;;;;;;;;;;;;;5032465;28;19920;-63
2023/05/22 05:44:49;;;;;;;;;;;;;;;;;;5070669;28;19935;-63
2023/05/22 05:47:17;;;;;;;;;;;;;;;;;;5051800;28;20016;-62
2023/05/22 05:49:42;;;;;;;;;;;;;;;;;;5045584;28;19916;-62
2023/05/22 05:52:08;;;;;;;;;;;;;;;;;;5061933;28;19962;-62
2023/05/22 05:54:33;;;;;;;;;;;;;;;;;;5045723;28;20287;-61
2023/05/22 05:57:01;;;;;;;;;;;;;;;;;;5046916;28;20360;-62
2023/05/22 05:59:26;;;;;;;;;;;;;;;;;;5050683;28;19920;-62
2023/05/22 06:01:54;;;;;;;;;;;;;;;;;;5033397;28;20287;-63
2023/05/22 06:04:23;;;;;;;;;;;;;;;;;;5050579;28;20138;-61
2023/05/22 06:06:48;;;;;;;;;;;;;;;;;;5051105;28;19989;-63
2023/05/22 06:09:16;;;;;;;;;;;;;;;;;;5030621;28;19920;-63
2023/05/22 06:11:41;;;;;;;;;;;;;;;;;;5067863;28;20465;-63
2023/05/22 06:14:07;;;;;;;;;;;;;;;;;;5034200;28;19920;-63
2023/05/22 06:16:33;;;;;;;;;;;;;;;;;;5034084;28;19919;-63
2023/05/22 06:19:03;;;;;;;;;;;;;;;;;;5033398;28;20019;-65
2023/05/22 06:21:34;;;;;;;;;;;;;;;;;;5049034;28;19927;-62
2023/05/22 06:23:59;;;;;;;;;;;;;;;;;;5045299;28;20305;-63
2023/05/22 06:29:40;;;;;;;;;;;;;;;;;;5066752;28;20302;-64
2023/05/22 06:32:06;;;;;;;;;;;;;;;;;;5049880;28;19920;-64
2023/05/22 06:34:34;;;;;;;;;;;;;;;;;;5048283;28;20144;-64
2023/05/22 06:36:59;;;;;;;;;;;;;;;;;;5050235;28;20466;-64
2023/05/22 06:39:27;;;;;;;;;;;;;;;;;;5069283;28;19915;-65
2023/05/22 06:41:57;;;;;;;;;;;;;;;;;;5036380;28;19997;-63
2023/05/22 06:44:25;;;;;;;;;;;;;;;;;;5049869;28;19959;-63
2023/05/22 06:46:53;;;;;;;;;;;;;;;;;;5071922;28;19927;-63
2023/05/22 06:49:21;;;;;;;;;;;;;;;;;;5031955;28;19916;-63
2023/05/22 06:51:49;;;;;;;;;;;;;;;;;;5025809;28;20071;-62
2023/05/22 06:54:14;;;;;;;;;;;;;;;;;;5044407;28;20913;-66
2023/05/22 06:56:39;;;;;;;;;;;;;;;;;;5043327;28;19935;-63
2023/05/22 06:59:05;;;;;;;;;;;;;;;;;;5049596;28;20529;-63
2023/05/22 07:01:30;;;;;;;;;;;;;;;;;;5032899;28;19923;-62
2023/05/22 07:03:56;;;;;;;;;;;;;;;;;;5046695;28;19927;-63
2023/05/22 07:06:23;;;;;;;;;;;;;;;;;;5047996;28;21884;-64
2023/05/22 07:08:51;;;;;;;;;;;;;;;;;;5050562;28;19923;-64
2023/05/22 07:11:16;;;;;;;;;;;;;;;;;;5021337;28;21064;-65
2023/05/22 07:13:44;;;;;;;;;;;;;;;;;;5047946;28;20614;-64
2023/05/22 07:16:13;;;;;;;;;;;;;;;;;;5033614;28;19927;-63
2023/05/22 07:18:41;;;;;;;;;;;;;;;;;;5049878;28;19916;-63
2023/05/22 07:21:06;;;;;;;;;;;;;;;;;;5068314;28;19920;-64
2023/05/22 07:23:31;;;;;;;;;;;;;;;;;;5029691;28;19968;-63
2023/05/22 07:25:57;;;;;;;;;;;;;;;;;;5034076;28;20015;-64
2023/05/22 07:28:22;;;;;;;;;;;;;;;;;;5064472;28;19931;-63
2023/05/22 07:30:47;;;;;;;;;;;;;;;;;;5043340;28;19927;-63
2023/05/22 07:33:12;;;;;;;;;;;;;;;;;;5035089;28;21163;-63
2023/05/22 07:35:40;;;;;;;;;;;;;;;;;;5046024;28;19916;-62
2023/05/22 07:38:08;;;;;;;;;;;;;;;;;;5031588;28;19924;-63
2023/05/22 07:40:36;;;;;;;;;;;;;;;;;;5032827;28;20031;-61
2023/05/22 07:43:04;;;;;;;;;;;;;;;;;;5048322;28;19958;-62
2023/05/22 07:45:30;;;;;;;;;;;;;;;;;;5048684;28;19924;-62
2023/05/22 07:47:57;;;;;;;;;;;;;;;;;;5064671;28;19975;-60
2023/05/22 07:50:25;;;;;;;;;;;;;;;;;;5064400;28;19927;-62
2023/05/22 07:52:50;;;;;;;;;;;;;;;;;;5039716;28;19926;-62
2023/05/22 07:55:18;;;;;;;;;;;;;;;;;;5051988;28;19920;-63
2023/05/22 07:57:43;;;;;;;;;;;;;;;;;;5050980;28;19927;-62
2023/05/22 08:00:08;;;;;;;;;;;;;;;;;;5053309;28;19916;-63
2023/05/22 08:02:34;;;;;;;;;;;;;;;;;;5035734;28;20234;-63
2023/05/22 08:05:03;;;;;;;;;;;;;;;;;;5052674;28;19924;-62
2023/05/22 08:07:28;;;;;;;;;;;;;;;;;;5047209;28;19920;-64
2023/05/22 08:09:56;;;;;;;;;;;;;;;;;;5052744;28;19927;-63
2023/05/22 08:12:24;;;;;;;;;;;;;;;;;;5069077;28;20511;-63
2023/05/22 08:14:49;;;;;;;;;;;;;;;;;;5049882;28;19916;-62
2023/05/22 08:17:17;;;;;;;;;;;;;;;;;;5036166;28;19973;-63
2023/05/22 08:19:45;;;;;;;;;;;;;;;;;;5071256;28;19916;-63
2023/05/22 08:22:12;;;;;;;;;;;;;;;;;;5034630;28;20732;-62
2023/05/22 08:24:43;;;;;;;;;;;;;;;;;;5052951;28;20478;-62
2023/05/22 08:27:14;;;;;;;;;;;;;;;;;;5034392;28;19927;-64
2023/05/22 08:29:39;;;;;;;;;;;;;;;;;;5036240;28;20001;-62
2023/05/22 08:32:07;;;;;;;;;;;;;;;;;;5037219;28;19920;-62
2023/05/22 08:34:32;;;;;;;;;;;;;;;;;;5034796;28;19939;-62
2023/05/22 08:36:58;;;;;;;;;;;;;;;;;;5034233;28;19954;-62
2023/05/22 08:39:23;;;;;;;;;;;;;;;;;;5054907;28;19963;-62
2023/05/22 08:41:48;;;;;;;;;;;;;;;;;;5069226;28;19920;-62
2023/05/22 08:44:14;;;;;;;;;;;;;;;;;;5054215;28;19931;-62
2023/05/22 08:46:44;;;;;;;;;;;;;;;;;;5037486;28;19945;-63
2023/05/22 08:49:10;;;;;;;;;;;;;;;;;;5068657;28;19969;-62
2023/05/22 08:51:36;;;;;;;;;;;;;;;;;;5031718;28;20294;-63
2023/05/22 08:54:06;;;;;;;;;;;;;;;;;;5052761;28;19943;-64
2023/05/22 08:56:32;;;;;;;;;;;;;;;;;;5048993;28;19973;-63
2023/05/22 08:58:57;;;;;;;;;;;;;;;;;;5035996;28;19920;-63
2023/05/22 09:01:22;;;;;;;;;;;;;;;;;;5054164;28;20431;-62
2023/05/22 09:03:51;;;;;;;;;;;;;;;;;;5053084;28;19920;-63
2023/05/22 09:06:16;;;;;;;;;;;;;;;;;;5069038;28;20035;-63
2023/05/22 09:08:42;;;;;;;;;;;;;;;;;;5069357;28;19916;-64
2023/05/22 09:11:10;;;;;;;;;;;;;;;;;;5048727;28;20028;-63
2023/05/22 09:13:35;;;;;;;;;;;;;;;;;;5047338;28;19974;-62
2023/05/22 09:16:00;;;;;;;;;;;;;;;;;;5052169;28;20462;-62
2023/05/22 09:18:25;;;;;;;;;;;;;;;;;;5032438;28;19920;-62
2023/05/22 09:20:53;;;;;;;;;;;;;;;;;;5053123;28;20222;-63
2023/05/22 09:23:24;;;;;;;;;;;;;;;;;;5065899;28;19923;-63
2023/05/22 09:25:52;;;;;;;;;;;;;;;;;;5048611;28;19939;-62
2023/05/22 09:28:22;;;;;;;;;;;;;;;;;;5035633;28;19977;-63
2023/05/22 09:30:50;;;;;;;;;;;;;;;;;;5052640;28;20012;-63
2023/05/22 09:33:16;;;;;;;;;;;;;;;;;;5033335;28;19928;-64
2023/05/22 09:35:44;;;;;;;;;;;;;;;;;;5051420;28;20140;-65
2023/05/22 09:38:09;;;;;;;;;;;;;;;;;;5046389;28;19920;-63
2023/05/22 09:40:37;;;;;;;;;;;;;;;;;;5033693;28;20374;-64
2023/05/22 09:43:05;;;;;;;;;;;;;;;;;;5066510;28;20422;-64
2023/05/22 09:45:31;;;;;;;;;;;;;;;;;;5054090;28;19924;-64
2023/05/22 09:48:01;;;;;;;;;;;;;;;;;;5049540;28;19916;-65
2023/05/22 09:50:29;;;;;;;;;;;;;;;;;;5052553;28;21798;-64
2023/05/22 09:52:57;;;;;;;;;;;;;;;;;;5050591;28;19998;-63
2023/05/22 09:55:22;;;;;;;;;;;;;;;;;;5049019;28;19969;-65
2023/05/22 09:57:50;;;;;;;;;;;;;;;;;;5070587;28;20586;-64
2023/05/22 10:00:17;;;;;;;;;;;;;;;;;;5031906;28;20278;-64
2023/05/22 10:02:42;;;;;;;;;;;;;;;;;;5068394;28;19959;-64
2023/05/22 10:05:10;;;;;;;;;;;;;;;;;;5051202;28;19966;-64
2023/05/22 10:07:36;;;;;;;;;;;;;;;;;;5047005;28;19952;-63
2023/05/22 10:10:02;;;;;;;;;;;;;;;;;;5051674;28;19920;-64
2023/05/22 10:12:27;;;;;;;;;;;;;;;;;;5049055;28;19916;-63
2023/05/22 10:14:55;;;;;;;;;;;;;;;;;;5071614;28;19973;-64
2023/05/22 10:17:23;;;;;;;;;;;;;;;;;;5035454;28;19931;-64
2023/05/22 10:19:48;;;;;;;;;;;;;;;;;;5070827;28;19916;-63
2023/05/22 10:22:19;;;;;;;;;;;;;;;;;;5032234;28;20030;-64
2023/05/22 10:24:47;;;;;;;;;;;;;;;;;;5050941;28;19946;-64
2023/05/22 10:27:12;;;;;;;;;;;;;;;;;;5052140;28;21771;-64
2023/05/22 10:29:40;;;;;;;;;;;;;;;;;;5048134;28;20767;-64
2023/05/22 10:32:08;;;;;;;;;;;;;;;;;;5049957;28;19920;-62
2023/05/22 10:34:33;;;;;;;;;;;;;;;;;;5048766;28;20024;-64
2023/05/22 10:37:02;;;;;;;;;;;;;;;;;;5053421;28;20706;-64
2023/05/22 10:39:27;;;;;;;;;;;;;;;;;;5032510;28;20022;-64
2023/05/22 10:41:55;;;;;;;;;;;;;;;;;;5032973;28;20181;-64
2023/05/22 10:44:22;;;;;;;;;;;;;;;;;;5069482;28;19928;-64
2023/05/22 10:46:48;;;;;;;;;;;;;;;;;;5071148;28;19920;-64
2023/05/22 10:49:13;;;;;;;;;;;;;;;;;;5048224;28;19973;-63
2023/05/22 10:51:44;;;;;;;;;;;;;;;;;;5044844;28;19987;-62
2023/05/22 10:54:09;;;;;;;;;;;;;;;;;;5035735;28;20470;-64
2023/05/22 10:56:37;;;;;;;;;;;;;;;;;;5052764;28;19920;-64
2023/05/22 10:59:03;;;;;;;;;;;;;;;;;;5069736;28;20666;-64
2023/05/22 11:01:36;;;;;;;;;;;;;;;;;;5072016;28;19911;-65
2023/05/22 11:04:05;;;;;;;;;;;;;;;;;;5036706;28;19923;-65
2023/05/22 11:06:31;;;;;;;;;;;;;;;;;;5071313;28;20006;-64
2023/05/22 11:08:56;;;;;;;;;;;;;;;;;;5032057;28;19966;-64
2023/05/22 11:11:24;;;;;;;;;;;;;;;;;;5034081;28;20014;-64
2023/05/22 11:13:50;;;;;;;;;;;;;;;;;;5026748;28;20322;-64
2023/05/22 11:16:15;;;;;;;;;;;;;;;;;;5032922;28;19928;-63
2023/05/22 11:18:40;;;;;;;;;;;;;;;;;;5052423;28;19935;-64
2023/05/22 11:21:06;;;;;;;;;;;;;;;;;;5024724;28;19920;-64
2023/05/22 11:23:34;;;;;;;;;;;;;;;;;;5069946;28;19927;-64
2023/05/22 11:26:05;;;;;;;;;;;;;;;;;;5027718;28;19981;-64
2023/05/22 11:28:33;;;;;;;;;;;;;;;;;;5048622;28;19935;-64
2023/05/22 11:30:58;;;;;;;;;;;;;;;;;;5051493;28;19916;-62
2023/05/22 11:33:23;;;;;;;;;;;;;;;;;;5031029;28;19926;-63
2023/05/22 11:35:50;;;;;;;;;;;;;;;;;;5047907;28;19927;-63
2023/05/22 11:38:15;;;;;;;;;;;;;;;;;;5050129;28;19927;-63
2023/05/22 11:40:41;;;;;;;;;;;;;;;;;;5073466;28;19916;-64
2023/05/22 11:43:06;;;;;;;;;;;;;;;;;;5035574;28;20046;-64
2023/05/22 11:45:34;;;;;;;;;;;;;;;;;;5054218;28;19958;-64
2023/05/22 11:47:59;;;;;;;;;;;;;;;;;;5050974;28;19993;-63
2023/05/22 11:50:25;;;;;;;;;;;;;;;;;;5034987;28;21790;-64
2023/05/22 11:52:50;;;;;;;;;;;;;;;;;;5049805;28;20428;-65
2023/05/22 11:55:15;;;;;;;;;;;;;;;;;;5047429;28;19931;-62
2023/05/22 11:57:41;;;;;;;;;;;;;;;;;;5072361;28;20091;-62
2023/05/22 12:00:07;;;;;;;;;;;;;;;;;;5033061;28;19927;-63
2023/05/22 12:02:32;;;;;;;;;;;;;;;;;;5051994;28;19920;-63
2023/05/22 12:04:57;;;;;;;;;;;;;;;;;;5051505;28;19924;-63
2023/05/22 12:07:23;;;;;;;;;;;;;;;;;;5038210;28;20050;-63
2023/05/22 12:09:48;;;;;;;;;;;;;;;;;;5068816;28;19916;-63
2023/05/22 12:12:13;;;;;;;;;;;;;;;;;;5070505;28;19923;-63
2023/05/22 12:14:38;;;;;;;;;;;;;;;;;;5069678;28;19999;-63
2023/05/22 12:17:04;;;;;;;;;;;;;;;;;;5051501;28;19916;-64
2023/05/22 12:19:31;;;;;;;;;;;;;;;;;;5035340;28;19927;-62
2023/05/22 12:21:59;;;;;;;;;;;;;;;;;;5030530;28;19931;-62
2023/05/22 12:24:29;;;;;;;;;;;;;;;;;;5031452;28;19993;-61
2023/05/22 12:26:55;;;;;;;;;;;;;;;;;;5051993;28;20680;-62
2023/05/22 12:29:20;;;;;;;;;;;;;;;;;;5048551;28;19920;-63
2023/05/22 12:31:45;;;;;;;;;;;;;;;;;;5015475;28;20388;-64
2023/05/22 12:34:14;;;;;;;;;;;;;;;;;;5049188;28;20010;-61
2023/05/22 12:36:40;;;;;;;;;;;;;;;;;;5045760;28;19924;-61
2023/05/22 12:39:07;;;;;;;;;;;;;;;;;;5048854;28;19989;-63
2023/05/22 12:41:33;;;;;;;;;;;;;;;;;;5049745;28;19920;-62
2023/05/22 12:44:02;;;;;;;;;;;;;;;;;;5068643;28;19939;-64
2023/05/22 12:46:30;;;;;;;;;;;;;;;;;;5036765;28;21542;-62
2023/05/22 12:49:01;;;;;;;;;;;;;;;;;;5035202;28;19997;-64
2023/05/22 12:51:28;;;;;;;;;;;;;;;;;;5066093;28;19960;-62
2023/05/22 12:53:53;;;;;;;;;;;;;;;;;;5035272;28;20110;-63
2023/05/22 12:56:21;;;;;;;;;;;;;;;;;;5070942;28;19936;-62
2023/05/22 12:58:46;;;;;;;;;;;;;;;;;;5035862;28;19955;-62
2023/05/22 13:01:15;;;;;;;;;;;;;;;;;;5033216;28;19916;-62
2023/05/22 13:03:45;;;;;;;;;;;;;;;;;;5052909;28;19916;-64
2023/05/22 13:06:11;;;;;;;;;;;;;;;;;;5071642;28;20049;-62
2023/05/22 13:08:36;;;;;;;;;;;;;;;;;;5046967;28;20007;-63
2023/05/22 13:11:01;;;;;;;;;;;;;;;;;;5071771;28;20542;-62
2023/05/22 13:13:26;;;;;;;;;;;;;;;;;;5071157;28;19916;-62
2023/05/22 13:15:55;;;;;;;;;;;;;;;;;;5034314;28;19916;-62
2023/05/22 13:18:23;;;;;;;;;;;;;;;;;;5034553;28;20398;-62
2023/05/22 13:20:51;;;;;;;;;;;;;;;;;;5063106;28;20032;-62
2023/05/22 13:23:16;;;;;;;;;;;;;;;;;;5064240;28;19920;-61
2023/05/22 13:25:41;;;;;;;;;;;;;;;;;;5050553;28;19931;-62
2023/05/22 13:28:09;;;;;;;;;;;;;;;;;;5050517;28;19920;-62
2023/05/22 13:30:34;;;;;;;;;;;;;;;;;;5038097;28;19916;-61
2023/05/22 13:33:02;;;;;;;;;;;;;;;;;;5031103;28;19970;-61
2023/05/22 13:35:30;;;;;;;;;;;;;;;;;;5050437;28;20324;-62
2023/05/22 13:37:56;;;;;;;;;;;;;;;;;;5038482;28;19916;-62
2023/05/22 13:40:24;;;;;;;;;;;;;;;;;;5034687;28;21356;-62
2023/05/22 13:42:51;;;;;;;;;;;;;;;;;;5052173;28;20227;-62
2023/05/22 13:45:20;;;;;;;;;;;;;;;;;;5052734;28;20313;-61
2023/05/22 13:47:45;;;;;;;;;;;;;;;;;;5066693;28;19969;-61
2023/05/22 13:50:10;;;;;;;;;;;;;;;;;;5052244;28;20387;-62
2023/05/22 13:52:36;;;;;;;;;;;;;;;;;;5048754;28;19927;-62
2023/05/22 13:55:04;;;;;;;;;;;;;;;;;;5030257;28;20407;-63
2023/05/22 13:57:32;;;;;;;;;;;;;;;;;;5068648;28;20381;-61
2023/05/22 14:00:00;;;;;;;;;;;;;;;;;;5050740;28;19920;-62
2023/05/22 14:02:25;;;;;;;;;;;;;;;;;;5044297;28;19920;-61
2023/05/22 14:04:50;;;;;;;;;;;;;;;;;;5032074;28;20687;-60
2023/05/22 14:07:16;;;;;;;;;;;;;;;;;;5051672;28;20256;-61
2023/05/22 14:09:41;;;;;;;;;;;;;;;;;;5051851;28;20173;-61
2023/05/22 14:12:06;;;;;;;;;;;;;;;;;;5068417;28;19920;-61
2023/05/22 14:14:32;;;;;;;;;;;;;;;;;;5045195;28;19920;-62
2023/05/22 14:16:57;;;;;;;;;;;;;;;;;;5049133;28;19920;-61
2023/05/22 14:19:23;;;;;;;;;;;;;;;;;;5070321;28;19920;-62
2023/05/22 14:21:53;;;;;;;;;;;;;;;;;;5041192;28;20380;-61
2023/05/22 14:24:19;;;;;;;;;;;;;;;;;;5068503;28;19920;-62
2023/05/22 14:26:46;;;;;;;;;;;;;;;;;;5052451;28;19922;-62
2023/05/22 14:29:12;;;;;;;;;;;;;;;;;;5035191;28;19916;-61
2023/05/22 14:31:37;;;;;;;;;;;;;;;;;;5034521;28;20497;-60
2023/05/22 14:34:03;;;;;;;;;;;;;;;;;;5047252;28;19927;-61
2023/05/22 14:36:28;;;;;;;;;;;;;;;;;;5070442;28;20445;-62
2023/05/22 14:38:53;;;;;;;;;;;;;;;;;;5066706;28;20359;-62
2023/05/22 14:41:23;;;;;;;;;;;;;;;;;;5031333;28;19916;-62
2023/05/22 14:43:49;;;;;;;;;;;;;;;;;;5048634;28;19916;-60
2023/05/22 14:46:17;;;;;;;;;;;;;;;;;;5064274;28;20022;-61
2023/05/22 14:48:45;;;;;;;;;;;;;;;;;;5026221;28;19998;-61
2023/05/22 14:51:10;;;;;;;;;;;;;;;;;;5023953;28;20044;-61
2023/05/22 14:53:38;;;;;;;;;;;;;;;;;;5046467;28;19936;-60
2023/05/22 14:56:03;;;;;;;;;;;;;;;;;;5030068;28;19943;-61
2023/05/22 14:58:32;;;;;;;;;;;;;;;;;;5067435;28;19938;-62
2023/05/22 15:01:07;;;;;;;;;;;;;;;;;;5061849;28;20389;-61
2023/05/22 15:03:36;;;;;;;;;;;;;;;;;;5081401;28;19912;-61
2023/05/22 15:06:04;;;;;;;;;;;;;;;;;;5058084;28;20364;-61
2023/05/22 15:08:30;;;;;;;;;;;;;;;;;;5025935;28;19920;-62
2023/05/22 15:10:55;;;;;;;;;;;;;;;;;;5044953;28;19943;-63
2023/05/22 15:13:21;;;;;;;;;;;;;;;;;;5049963;28;21694;-60
2023/05/22 15:15:46;;;;;;;;;;;;;;;;;;5051491;28;20350;-64
2023/05/22 15:18:12;;;;;;;;;;;;;;;;;;5033112;28;19920;-61
2023/05/22 15:20:37;;;;;;;;;;;;;;;;;;5032234;28;19997;-61
2023/05/22 15:23:04;;;;;;;;;;;;;;;;;;5048885;28;19920;-62
2023/05/22 15:25:35;;;;;;;;;;;;;;;;;;5073725;28;20057;-61
2023/05/22 15:28:01;;;;;;;;;;;;;;;;;;5035942;28;20418;-61
2023/05/22 15:30:34;;;;;;;;;;;;;;;;;;5065713;28;19916;-60
2023/05/22 15:33:02;;;;;;;;;;;;;;;;;;5044782;28;20050;-60
2023/05/22 15:35:29;;;;;;;;;;;;;;;;;;5064515;28;19974;-61
2023/05/22 15:37:57;;;;;;;;;;;;;;;;;;5048658;28;19931;-61
2023/05/22 15:40:25;;;;;;;;;;;;;;;;;;5065498;28;20509;-61
2023/05/22 15:42:51;;;;;;;;;;;;;;;;;;5047184;28;19916;-61
2023/05/22 15:45:16;;;;;;;;;;;;;;;;;;5035097;28;20347;-61
2023/05/22 15:47:41;;;;;;;;;;;;;;;;;;5049957;28;19916;-60
2023/05/22 15:50:09;;;;;;;;;;;;;;;;;;5043678;28;20286;-60
2023/05/22 15:52:42;;;;;;;;;;;;;;;;;;5048257;28;19935;-61
2023/05/22 15:55:08;;;;;;;;;;;;;;;;;;5047039;28;20420;-61
2023/05/22 15:57:33;;;;;;;;;;;;;;;;;;5046247;28;19916;-61
2023/05/22 15:59:58;;;;;;;;;;;;;;;;;;5045750;28;19920;-60
2023/05/22 16:02:24;;;;;;;;;;;;;;;;;;5063355;28;20367;-61
2023/05/22 16:04:49;;;;;;;;;;;;;;;;;;5045543;28;19924;-61
2023/05/22 16:07:17;;;;;;;;;;;;;;;;;;5066245;28;20278;-60
2023/05/22 16:09:42;;;;;;;;;;;;;;;;;;5030893;28;19931;-60
2023/05/22 16:12:09;;;;;;;;;;;;;;;;;;5058039;28;21195;-61
2023/05/22 16:14:34;;;;;;;;;;;;;;;;;;5029683;28;20023;-60
2023/05/22 16:17:00;;;;;;;;;;;;;;;;;;5045580;28;19920;-60
2023/05/22 16:19:25;;;;;;;;;;;;;;;;;;5035813;28;20163;-61
2023/05/22 16:21:50;;;;;;;;;;;;;;;;;;5071535;28;19956;-61
2023/05/22 16:24:16;;;;;;;;;;;;;;;;;;5065724;28;20453;-61
2023/05/22 16:26:41;;;;;;;;;;;;;;;;;;5022361;28;20772;-61
2023/05/22 16:29:07;;;;;;;;;;;;;;;;;;5031265;28;20186;-61
2023/05/22 16:31:34;;;;;;;;;;;;;;;;;;5029926;28;19958;-60
2023/05/22 16:33:59;;;;;;;;;;;;;;;;;;5043155;28;20306;-61
2023/05/22 16:36:25;;;;;;;;;;;;;;;;;;5044278;28;19920;-60
2023/05/22 16:38:50;;;;;;;;;;;;;;;;;;5034160;28;19920;-61
2023/05/22 16:41:21;;;;;;;;;;;;;;;;;;5063592;28;19931;-61
2023/05/22 16:43:47;;;;;;;;;;;;;;;;;;5032479;28;19927;-62
2023/05/22 16:46:12;;;;;;;;;;;;;;;;;;5053275;28;19955;-60
2023/05/22 16:48:38;;;;;;;;;;;;;;;;;;5035615;28;20023;-62
2023/05/22 16:51:13;;;;;;;;;;;;;;;;;;5067356;28;19939;-59